Time;durP1;ratioP1;P1;durP2;ratioP2;P2;SDS_P1;SDS_P2;PMS_P1;PMS_P2;Temp;Humidity;BMP_temperature;BMP_pressure;BME280_temperature;BME280_humidity;BME280_pressure;Samples;Min_cycle;Max_cycle;Signal;HPM_P1;HPM_P2
2021/01/19 00:02:13;;;;;;;;;;;11.40;99.90;;;;;;5017437;28;20388;-61
2021/01/19 00:04:41;;;;;;;;;;;11.30;99.90;;;;;;5013519;28;19929;-61
2021/01/19 00:07:08;;;;;;;;;;;11.40;99.90;;;;;;5033006;28;19925;-61
2021/01/19 00:09:34;;;;;;;;;;;11.30;99.90;;;;;;5000730;28;20305;-61
2021/01/19 00:12:01;;;;;;;;;;;11.40;99.90;;;;;;5009105;28;19944;-62
2021/01/19 00:14:28;;;;;;;;;;;11.30;99.90;;;;;;5016317;28;19979;-61
2021/01/19 00:16:54;;;;;;;;;;;11.40;99.90;;;;;;5014848;28;20360;-61
2021/01/19 00:19:21;;;;;;;;;;;11.40;99.90;;;;;;5013463;28;19929;-61
2021/01/19 00:21:49;;;;;;;;;;;11.40;99.90;;;;;;5008198;28;19936;-61
2021/01/19 00:24:15;;;;;;;;;;;11.40;99.90;;;;;;5015674;28;19929;-61
2021/01/19 00:26:42;;;;;;;;;;;11.30;99.90;;;;;;5012088;28;19940;-61
2021/01/19 00:29:09;;;;;;;;;;;11.30;99.90;;;;;;4997205;28;19928;-61
2021/01/19 00:31:35;;;;;;;;;;;11.40;99.90;;;;;;5017437;28;19929;-61
2021/01/19 00:34:02;;;;;;;;;;;11.40;99.90;;;;;;5012733;28;19937;-61
2021/01/19 00:36:29;;;;;;;;;;;11.40;99.90;;;;;;5012931;28;19925;-61
2021/01/19 00:38:56;;;;;;;;;;;11.40;99.90;;;;;;5001939;28;19941;-61
2021/01/19 00:41:23;;;;;;;;;;;11.50;99.90;;;;;;5012172;28;19975;-61
2021/01/19 00:43:50;;;;;;;;;;;11.50;99.90;;;;;;4997669;28;19925;-61
2021/01/19 00:46:16;;;;;;;;;;;11.50;99.90;;;;;;5026696;28;20684;-61
2021/01/19 00:48:43;;;;;;;;;;;11.60;99.90;;;;;;5012053;28;19975;-61
2021/01/19 00:51:10;;;;;;;;;;;11.50;99.90;;;;;;5014996;28;19929;-61
2021/01/19 00:53:36;;;;;;;;;;;11.60;99.90;;;;;;5010529;28;19933;-61
2021/01/19 00:56:05;;;;;;;;;;;11.50;99.90;;;;;;5012582;28;20451;-61
2021/01/19 00:58:31;;;;;;;;;;;11.50;99.90;;;;;;5016809;28;19929;-61
2021/01/19 01:00:58;;;;;;;;;;;11.50;99.90;;;;;;5016319;28;20399;-61
2021/01/19 01:03:25;;;;;;;;;;;11.50;99.90;;;;;;5000732;28;19936;-61
2021/01/19 01:05:51;;;;;;;;;;;11.50;99.90;;;;;;5016733;28;19936;-61
2021/01/19 01:08:18;;;;;;;;;;;11.50;99.90;;;;;;4997008;28;19999;-61
2021/01/19 01:10:45;;;;;;;;;;;11.50;99.90;;;;;;5008570;28;20609;-61
2021/01/19 01:13:12;;;;;;;;;;;11.50;99.90;;;;;;4996456;28;19929;-61
2021/01/19 01:15:39;;;;;;;;;;;11.50;99.90;;;;;;5011093;28;20624;-60
2021/01/19 01:18:11;;;;;;;;;;;11.50;99.90;;;;;;5028004;28;19937;-61
2021/01/19 01:20:37;;;;;;;;;;;11.50;99.90;;;;;;5017583;28;20370;-61
2021/01/19 01:23:04;;;;;;;;;;;11.50;99.90;;;;;;4999363;28;20357;-61
2021/01/19 01:25:31;;;;;;;;;;;11.50;99.90;;;;;;5010754;28;19933;-61
2021/01/19 01:27:58;;;;;;;;;;;11.50;99.90;;;;;;5032001;28;19925;-61
2021/01/19 01:30:25;;;;;;;;;;;11.50;99.90;;;;;;5013172;28;19937;-61
2021/01/19 01:32:52;;;;;;;;;;;11.50;99.90;;;;;;5015893;28;20007;-61
2021/01/19 01:35:19;;;;;;;;;;;11.50;99.90;;;;;;5014724;28;19933;-61
2021/01/19 01:37:47;;;;;;;;;;;11.40;99.90;;;;;;5012798;28;19933;-61
2021/01/19 01:40:15;;;;;;;;;;;11.50;99.90;;;;;;5018276;28;19966;-61
2021/01/19 01:42:42;;;;;;;;;;;11.40;99.90;;;;;;5018401;28;19926;-61
2021/01/19 01:45:09;;;;;;;;;;;11.50;99.90;;;;;;5017648;28;20633;-61
2021/01/19 01:47:38;;;;;;;;;;;11.40;99.90;;;;;;5016669;28;20661;-61
2021/01/19 01:50:05;;;;;;;;;;;11.50;99.90;;;;;;5018890;28;20538;-61
2021/01/19 01:52:32;;;;;;;;;;;11.40;99.90;;;;;;5019909;28;19929;-61
2021/01/19 01:54:59;;;;;;;;;;;11.50;99.90;;;;;;5016655;28;19937;-61
2021/01/19 01:57:26;;;;;;;;;;;11.40;99.90;;;;;;5013994;28;19925;-61
2021/01/19 01:59:56;;;;;;;;;;;11.40;99.90;;;;;;5018684;28;19990;-60
2021/01/19 02:02:22;;;;;;;;;;;11.40;99.90;;;;;;5020718;28;20396;-61
2021/01/19 02:04:50;;;;;;;;;;;11.40;99.90;;;;;;5032217;28;19929;-61
2021/01/19 02:07:20;;;;;;;;;;;11.40;99.90;;;;;;5018718;28;20107;-61
2021/01/19 02:09:50;;;;;;;;;;;11.40;99.90;;;;;;5017468;28;19929;-61
2021/01/19 02:12:20;;;;;;;;;;;11.40;99.90;;;;;;5021103;28;19929;-61
2021/01/19 02:14:52;;;;;;;;;;;11.40;99.90;;;;;;5018378;28;19929;-61
2021/01/19 02:17:24;;;;;;;;;;;11.40;99.90;;;;;;5016069;28;19936;-61
2021/01/19 02:20:09;;;;;;;;;;;11.40;99.90;;;;;;5018670;28;19975;-61
2021/01/19 02:22:51;;;;;;;;;;;11.40;99.90;;;;;;5018572;28;19933;-61
2021/01/19 02:25:25;;;;;;;;;;;11.40;99.90;;;;;;4997141;28;20324;-61
2021/01/19 02:27:57;;;;;;;;;;;11.40;99.90;;;;;;5014469;28;19999;-61
2021/01/19 02:30:34;;;;;;;;;;;11.40;99.90;;;;;;5035590;28;19933;-61
2021/01/19 02:33:03;;;;;;;;;;;11.40;99.90;;;;;;5016930;28;19925;-61
2021/01/19 02:35:34;;;;;;;;;;;11.40;99.90;;;;;;5018915;28;19933;-62
2021/01/19 02:38:05;;;;;;;;;;;11.40;99.90;;;;;;5020581;28;19949;-61
2021/01/19 02:40:32;;;;;;;;;;;11.40;99.90;;;;;;5033116;28;19936;-61
2021/01/19 02:43:06;;;;;;;;;;;11.40;99.90;;;;;;5017052;28;19936;-61
2021/01/19 02:45:32;;;;;;;;;;;11.40;99.90;;;;;;5018192;28;19936;-61
2021/01/19 02:47:59;;;;;;;;;;;11.40;99.90;;;;;;5019404;28;19934;-61
2021/01/19 02:50:27;;;;;;;;;;;11.40;99.90;;;;;;4999630;28;19940;-61
2021/01/19 02:52:54;;;;;;;;;;;11.40;99.90;;;;;;5018867;28;19968;-61
2021/01/19 02:55:21;;;;;;;;;;;11.40;99.90;;;;;;5017291;28;19929;-61
2021/01/19 02:58:02;;;;;;;;;;;11.40;99.90;;;;;;5016425;28;19929;-61
2021/01/19 03:00:31;;;;;;;;;;;11.40;99.90;;;;;;5018389;28;19944;-61
2021/01/19 03:02:59;;;;;;;;;;;11.40;99.90;;;;;;5014476;28;21318;-61
2021/01/19 03:05:26;;;;;;;;;;;11.40;99.90;;;;;;5000628;28;19925;-61
2021/01/19 03:07:54;;;;;;;;;;;11.40;99.90;;;;;;5017428;28;20305;-61
2021/01/19 03:10:20;;;;;;;;;;;11.40;99.90;;;;;;5030913;28;19930;-61
2021/01/19 03:12:48;;;;;;;;;;;11.40;99.90;;;;;;5010217;28;20809;-61
2021/01/19 03:15:15;;;;;;;;;;;11.40;99.90;;;;;;5029812;28;20416;-60
2021/01/19 03:17:43;;;;;;;;;;;11.40;99.90;;;;;;5014299;28;19929;-61
2021/01/19 03:20:10;;;;;;;;;;;11.40;99.90;;;;;;5016927;28;20372;-61
2021/01/19 03:22:37;;;;;;;;;;;11.40;99.90;;;;;;5030384;28;19943;-61
2021/01/19 03:25:05;;;;;;;;;;;11.40;99.90;;;;;;5001398;28;20588;-61
2021/01/19 03:27:32;;;;;;;;;;;11.40;99.90;;;;;;5020155;28;19929;-61
2021/01/19 03:29:59;;;;;;;;;;;11.40;99.90;;;;;;5018272;28;19951;-61
2021/01/19 03:32:25;;;;;;;;;;;11.40;99.90;;;;;;4997316;28;19929;-61
2021/01/19 03:34:52;;;;;;;;;;;11.40;99.90;;;;;;5016709;28;20459;-61
2021/01/19 03:37:18;;;;;;;;;;;11.40;99.90;;;;;;5016988;28;19929;-61
2021/01/19 03:39:45;;;;;;;;;;;11.40;99.90;;;;;;5016912;28;19925;-61
2021/01/19 03:42:13;;;;;;;;;;;11.40;99.90;;;;;;5016167;28;20531;-61
2021/01/19 03:44:39;;;;;;;;;;;11.40;99.90;;;;;;5016094;28;19933;-61
2021/01/19 03:47:06;;;;;;;;;;;11.40;99.90;;;;;;5017486;28;19929;-61
2021/01/19 03:49:33;;;;;;;;;;;11.40;99.90;;;;;;5010651;28;20392;-61
2021/01/19 03:51:59;;;;;;;;;;;11.40;99.90;;;;;;5032534;28;19933;-61
2021/01/19 03:54:26;;;;;;;;;;;11.40;99.90;;;;;;4996725;28;20636;-61
2021/01/19 03:56:53;;;;;;;;;;;11.40;99.90;;;;;;5014595;28;20333;-61
2021/01/19 03:59:20;;;;;;;;;;;11.40;99.90;;;;;;5014202;28;19933;-61
2021/01/19 04:01:49;;;;;;;;;;;11.40;99.90;;;;;;5014192;28;19929;-61
2021/01/19 04:04:16;;;;;;;;;;;11.40;99.90;;;;;;5026210;22;20386;-62
2021/01/19 04:06:42;;;;;;;;;;;11.40;99.90;;;;;;4995449;28;19925;-62
2021/01/19 04:09:09;;;;;;;;;;;11.40;99.90;;;;;;4982526;28;20398;-63
2021/01/19 04:11:36;;;;;;;;;;;11.40;99.90;;;;;;4994069;28;19992;-62
2021/01/19 04:14:02;;;;;;;;;;;11.40;99.90;;;;;;4993790;28;19976;-61
2021/01/19 04:16:30;;;;;;;;;;;11.40;99.90;;;;;;4965053;28;19930;-62
2021/01/19 04:18:57;;;;;;;;;;;11.40;99.90;;;;;;4964936;28;19937;-62
2021/01/19 04:21:25;;;;;;;;;;;11.40;99.90;;;;;;4974734;28;19930;-62
2021/01/19 04:23:51;;;;;;;;;;;11.40;99.90;;;;;;4978020;28;20587;-61
2021/01/19 04:26:18;;;;;;;;;;;11.40;99.90;;;;;;4965399;28;19929;-61
2021/01/19 04:28:45;;;;;;;;;;;11.40;99.90;;;;;;4974365;28;19934;-62
2021/01/19 04:31:12;;;;;;;;;;;11.40;99.90;;;;;;4975194;28;20313;-62
2021/01/19 04:33:39;;;;;;;;;;;11.40;99.90;;;;;;4962552;28;20244;-63
2021/01/19 04:36:06;;;;;;;;;;;11.40;99.90;;;;;;4959375;28;19945;-63
2021/01/19 04:38:33;;;;;;;;;;;11.40;99.90;;;;;;4957869;28;20410;-61
2021/01/19 04:41:00;;;;;;;;;;;11.40;99.90;;;;;;4955427;28;20021;-63
2021/01/19 04:43:26;;;;;;;;;;;11.40;99.90;;;;;;4976119;28;19925;-62
2021/01/19 04:45:53;;;;;;;;;;;11.40;99.90;;;;;;4972032;28;19929;-61
2021/01/19 04:48:20;;;;;;;;;;;11.40;99.90;;;;;;4959433;28;19926;-63
2021/01/19 04:50:48;;;;;;;;;;;11.40;99.90;;;;;;4958484;28;19977;-64
2021/01/19 04:53:16;;;;;;;;;;;11.40;99.90;;;;;;4960586;28;19934;-63
2021/01/19 04:55:47;;;;;;;;;;;11.40;99.90;;;;;;4990579;28;19929;-63
2021/01/19 04:58:19;;;;;;;;;;;11.40;99.90;;;;;;4983269;28;20266;-63
2021/01/19 05:00:55;;;;;;;;;;;11.40;99.90;;;;;;4995383;28;19930;-63
2021/01/19 05:03:31;;;;;;;;;;;11.40;99.90;;;;;;4979551;28;20338;-64
2021/01/19 05:06:00;;;;;;;;;;;11.40;99.90;;;;;;4975971;28;19988;-61
2021/01/19 05:08:54;;;;;;;;;;;11.40;99.90;;;;;;4973648;28;19930;-63
2021/01/19 05:11:21;;;;;;;;;;;11.40;99.90;;;;;;4976476;28;19925;-64
2021/01/19 05:13:49;;;;;;;;;;;11.40;99.90;;;;;;4977291;28;20031;-63
2021/01/19 05:16:16;;;;;;;;;;;11.40;99.90;;;;;;4968953;28;19988;-65
2021/01/19 05:18:43;;;;;;;;;;;11.40;99.90;;;;;;4972148;28;20864;-63
2021/01/19 05:21:11;;;;;;;;;;;11.40;99.90;;;;;;4955307;28;19930;-63
2021/01/19 05:23:38;;;;;;;;;;;11.40;99.90;;;;;;4971170;28;19933;-64
2021/01/19 05:26:06;;;;;;;;;;;11.40;99.90;;;;;;4959731;28;19934;-63
2021/01/19 05:28:35;;;;;;;;;;;11.40;99.90;;;;;;4976643;28;21377;-63
2021/01/19 05:31:04;;;;;;;;;;;11.40;99.90;;;;;;4972418;28;19937;-63
2021/01/19 05:33:30;;;;;;;;;;;11.40;99.90;;;;;;4988088;28;19930;-63
2021/01/19 05:36:07;;;;;;;;;;;11.40;99.90;;;;;;4957979;28;20401;-63
2021/01/19 05:38:47;;;;;;;;;;;11.40;99.90;;;;;;4987957;28;19930;-64
2021/01/19 05:41:27;;;;;;;;;;;11.40;99.90;;;;;;4972169;28;19937;-63
2021/01/19 05:43:54;;;;;;;;;;;11.40;99.90;;;;;;4974242;28;19933;-63
2021/01/19 05:46:25;;;;;;;;;;;11.40;99.90;;;;;;4959842;28;19934;-63
2021/01/19 05:48:55;;;;;;;;;;;11.40;99.90;;;;;;4949874;28;20383;-63
2021/01/19 05:51:24;;;;;;;;;;;11.40;99.90;;;;;;4978977;28;19937;-63
2021/01/19 05:53:52;;;;;;;;;;;11.40;99.90;;;;;;4955486;28;20377;-63
2021/01/19 05:56:21;;;;;;;;;;;11.40;99.90;;;;;;4953281;28;19929;-65
2021/01/19 05:58:48;;;;;;;;;;;11.40;99.90;;;;;;4973801;28;19937;-63
2021/01/19 06:01:22;;;;;;;;;;;11.40;99.90;;;;;;4952469;28;20016;-64
2021/01/19 06:03:51;;;;;;;;;;;11.40;99.90;;;;;;4975992;28;19952;-63
2021/01/19 06:06:19;;;;;;;;;;;11.40;99.90;;;;;;4975642;28;19930;-63
2021/01/19 06:08:46;;;;;;;;;;;11.40;99.90;;;;;;4968049;28;19937;-63
2021/01/19 06:11:14;;;;;;;;;;;11.40;99.90;;;;;;4953674;28;20074;-64
2021/01/19 06:13:42;;;;;;;;;;;11.40;99.90;;;;;;4980326;28;20041;-63
2021/01/19 06:16:09;;;;;;;;;;;11.40;99.90;;;;;;4968519;28;20426;-63
2021/01/19 06:18:36;;;;;;;;;;;11.40;99.90;;;;;;4971564;28;19937;-64
2021/01/19 06:21:03;;;;;;;;;;;11.40;99.90;;;;;;4960813;28;20011;-64
2021/01/19 06:23:30;;;;;;;;;;;11.40;99.90;;;;;;4960522;28;20321;-63
2021/01/19 06:26:04;;;;;;;;;;;11.40;99.90;;;;;;4954703;28;19934;-63
2021/01/19 06:28:31;;;;;;;;;;;11.40;99.90;;;;;;4968923;28;20194;-63
2021/01/19 06:30:58;;;;;;;;;;;11.50;99.90;;;;;;4973599;28;19934;-64
2021/01/19 06:33:28;;;;;;;;;;;11.40;99.90;;;;;;4977153;28;19929;-63
2021/01/19 06:35:55;;;;;;;;;;;11.40;99.90;;;;;;4978364;28;19980;-63
2021/01/19 06:38:22;;;;;;;;;;;11.40;99.90;;;;;;4974499;28;19930;-63
2021/01/19 06:40:50;;;;;;;;;;;11.40;99.90;;;;;;4957856;28;19930;-64
2021/01/19 06:43:19;;;;;;;;;;;11.40;99.90;;;;;;4977763;28;19929;-63
2021/01/19 06:45:47;;;;;;;;;;;11.50;99.90;;;;;;4974228;28;19934;-63
2021/01/19 06:48:16;;;;;;;;;;;11.40;99.90;;;;;;4974394;28;20058;-63
2021/01/19 06:50:44;;;;;;;;;;;11.40;99.90;;;;;;4974639;28;19925;-63
2021/01/19 06:53:14;;;;;;;;;;;11.40;99.90;;;;;;4963747;28;19930;-64
2021/01/19 06:55:47;;;;;;;;;;;11.40;99.90;;;;;;4950101;28;19960;-63
2021/01/19 06:58:18;;;;;;;;;;;11.40;99.90;;;;;;4977876;28;20282;-64
2021/01/19 07:00:45;;;;;;;;;;;11.40;99.90;;;;;;4958554;28;19998;-63
2021/01/19 07:03:23;;;;;;;;;;;11.40;99.90;;;;;;4960516;28;19930;-63
2021/01/19 07:05:53;;;;;;;;;;;11.40;99.90;;;;;;4970079;28;19934;-63
2021/01/19 07:08:47;;;;;;;;;;;11.40;99.90;;;;;;4973676;28;19937;-63
2021/01/19 07:11:20;;;;;;;;;;;11.40;99.90;;;;;;4974197;28;20231;-64
2021/01/19 07:13:49;;;;;;;;;;;11.40;99.90;;;;;;4969933;28;19930;-64
2021/01/19 07:16:22;;;;;;;;;;;11.40;99.90;;;;;;4975799;28;19934;-63
2021/01/19 07:19:15;;;;;;;;;;;11.40;99.90;;;;;;4976885;28;19930;-63
2021/01/19 07:21:52;;;;;;;;;;;11.40;99.90;;;;;;4974981;28;19933;-63
2021/01/19 07:24:21;;;;;;;;;;;11.40;99.90;;;;;;4978450;28;20172;-63
2021/01/19 07:26:49;;;;;;;;;;;11.40;99.90;;;;;;4967032;28;19969;-64
2021/01/19 07:29:16;;;;;;;;;;;11.40;99.90;;;;;;4973642;28;20064;-63
2021/01/19 07:31:42;;;;;;;;;;;11.40;99.90;;;;;;4977703;28;19929;-63
2021/01/19 07:34:11;;;;;;;;;;;11.40;99.90;;;;;;4976024;28;19952;-63
2021/01/19 07:36:38;;;;;;;;;;;11.40;99.90;;;;;;4968795;28;19936;-64
2021/01/19 07:39:11;;;;;;;;;;;11.40;99.90;;;;;;4974246;28;20051;-63
2021/01/19 07:41:38;;;;;;;;;;;11.40;99.90;;;;;;4970197;28;19985;-64
2021/01/19 07:44:05;;;;;;;;;;;11.40;99.90;;;;;;4970824;28;19941;-63
2021/01/19 07:46:31;;;;;;;;;;;11.40;99.90;;;;;;4971314;28;19934;-63
2021/01/19 07:49:01;;;;;;;;;;;11.40;99.90;;;;;;4975898;28;20298;-63
2021/01/19 07:51:38;;;;;;;;;;;11.40;99.90;;;;;;4991252;28;19930;-63
2021/01/19 07:54:05;;;;;;;;;;;11.40;99.90;;;;;;4975542;28;19985;-61
2021/01/19 07:56:32;;;;;;;;;;;11.40;99.90;;;;;;4958119;28;19942;-62
2021/01/19 07:59:00;;;;;;;;;;;11.40;99.90;;;;;;4972543;28;19937;-62
2021/01/19 08:01:26;;;;;;;;;;;11.40;99.90;;;;;;4956397;28;19934;-62
2021/01/19 08:03:53;;;;;;;;;;;11.40;99.90;;;;;;4972849;28;19930;-63
2021/01/19 08:06:29;;;;;;;;;;;11.40;99.90;;;;;;4975283;28;20526;-61
2021/01/19 08:08:57;;;;;;;;;;;11.40;99.90;;;;;;4989016;28;19934;-62
2021/01/19 08:11:23;;;;;;;;;;;11.40;99.90;;;;;;4959806;28;19980;-61
2021/01/19 08:13:57;;;;;;;;;;;11.40;99.90;;;;;;4960589;28;19926;-61
2021/01/19 08:16:26;;;;;;;;;;;11.40;99.90;;;;;;4958935;28;19933;-61
2021/01/19 08:19:02;;;;;;;;;;;11.40;99.90;;;;;;4973810;28;19926;-61
2021/01/19 08:21:31;;;;;;;;;;;11.40;99.90;;;;;;4978931;28;20354;-61
2021/01/19 08:24:02;;;;;;;;;;;11.40;99.90;;;;;;4973311;28;19926;-61
2021/01/19 08:26:29;;;;;;;;;;;11.40;99.90;;;;;;4978621;28;20401;-61
2021/01/19 08:28:56;;;;;;;;;;;11.40;99.90;;;;;;4959877;28;19934;-62
2021/01/19 08:31:27;;;;;;;;;;;11.40;99.90;;;;;;4973160;28;20322;-62
2021/01/19 08:33:54;;;;;;;;;;;11.40;99.90;;;;;;4977904;28;19943;-61
2021/01/19 08:36:22;;;;;;;;;;;11.40;99.90;;;;;;4958523;28;20501;-63
2021/01/19 08:38:49;;;;;;;;;;;11.40;99.90;;;;;;4971632;28;19930;-61
2021/01/19 08:41:17;;;;;;;;;;;11.40;99.90;;;;;;4961173;28;19933;-62
2021/01/19 08:43:54;;;;;;;;;;;11.40;99.90;;;;;;4987675;28;20008;-62
2021/01/19 08:46:20;;;;;;;;;;;11.40;99.90;;;;;;4978061;28;19952;-63
2021/01/19 08:48:48;;;;;;;;;;;11.40;99.90;;;;;;4959457;28;19976;-61
2021/01/19 08:51:21;;;;;;;;;;;11.40;99.90;;;;;;4959111;28;19940;-63
2021/01/19 08:53:48;;;;;;;;;;;11.40;99.90;;;;;;4966680;28;19930;-64
2021/01/19 08:56:22;;;;;;;;;;;11.40;99.90;;;;;;4960766;28;19926;-61
2021/01/19 08:58:50;;;;;;;;;;;11.40;99.90;;;;;;4972635;28;19988;-61
2021/01/19 09:01:16;;;;;;;;;;;11.40;99.90;;;;;;4973045;28;20441;-63
2021/01/19 09:03:53;;;;;;;;;;;11.40;99.90;;;;;;4971954;28;20358;-63
2021/01/19 09:06:21;;;;;;;;;;;11.40;99.90;;;;;;4969597;28;19929;-63
2021/01/19 09:08:50;;;;;;;;;;;11.40;99.90;;;;;;4957313;28;19933;-63
2021/01/19 09:11:17;;;;;;;;;;;11.40;99.90;;;;;;4969001;28;19937;-63
2021/01/19 09:13:45;;;;;;;;;;;11.40;99.90;;;;;;4954463;28;20406;-63
2021/01/19 09:16:20;;;;;;;;;;;11.40;99.90;;;;;;4970768;28;20042;-63
2021/01/19 09:18:52;;;;;;;;;;;11.40;99.90;;;;;;4967254;28;19999;-63
2021/01/19 09:21:18;;;;;;;;;;;11.40;99.90;;;;;;4989659;28;19930;-63
2021/01/19 09:23:45;;;;;;;;;;;11.40;99.90;;;;;;4951240;28;19957;-63
2021/01/19 09:26:12;;;;;;;;;;;11.40;99.90;;;;;;4959705;28;19952;-62
2021/01/19 09:28:39;;;;;;;;;;;11.40;99.90;;;;;;4956918;28;20295;-63
2021/01/19 09:31:11;;;;;;;;;;;11.40;99.90;;;;;;4956189;28;19933;-63
2021/01/19 09:33:38;;;;;;;;;;;11.40;99.90;;;;;;4969730;28;20333;-63
2021/01/19 09:36:05;;;;;;;;;;;11.40;99.90;;;;;;4977227;28;19926;-64
2021/01/19 09:38:32;;;;;;;;;;;11.40;99.90;;;;;;4961393;28;19930;-63
2021/01/19 09:40:59;;;;;;;;;;;11.30;99.90;;;;;;4971358;28;19929;-63
2021/01/19 09:43:26;;;;;;;;;;;11.40;99.90;;;;;;4971060;28;19992;-63
2021/01/19 09:45:56;;;;;;;;;;;11.40;99.90;;;;;;4959230;28;19937;-63
2021/01/19 09:48:26;;;;;;;;;;;11.40;99.90;;;;;;4976773;28;19941;-63
2021/01/19 09:50:53;;;;;;;;;;;11.40;99.90;;;;;;4958174;28;19996;-63
2021/01/19 09:53:26;;;;;;;;;;;11.40;99.90;;;;;;4972285;28;19936;-63
2021/01/19 09:55:53;;;;;;;;;;;11.40;99.90;;;;;;4974031;28;19930;-64
2021/01/19 09:58:21;;;;;;;;;;;11.40;99.90;;;;;;4958956;28;20336;-63
2021/01/19 10:00:48;;;;;;;;;;;11.40;99.90;;;;;;4959045;28;19934;-63
2021/01/19 10:03:16;;;;;;;;;;;11.40;99.90;;;;;;4960003;28;19929;-63
2021/01/19 10:05:43;;;;;;;;;;;11.40;99.90;;;;;;4965692;28;19941;-64
2021/01/19 10:08:10;;;;;;;;;;;11.40;99.90;;;;;;4980191;28;19937;-62
2021/01/19 10:10:38;;;;;;;;;;;11.40;99.90;;;;;;4980494;28;20086;-63
2021/01/19 10:13:05;;;;;;;;;;;11.40;99.90;;;;;;4978951;28;19934;-63
2021/01/19 10:15:32;;;;;;;;;;;11.40;99.90;;;;;;4974688;28;19933;-63
2021/01/19 10:17:59;;;;;;;;;;;11.40;99.90;;;;;;4971737;28;19985;-63
2021/01/19 10:20:32;;;;;;;;;;;11.40;99.90;;;;;;4961243;28;19941;-63
2021/01/19 10:23:00;;;;;;;;;;;11.40;99.90;;;;;;4971175;28;19937;-64
2021/01/19 10:25:28;;;;;;;;;;;11.40;99.90;;;;;;4970852;28;19965;-63
2021/01/19 10:27:56;;;;;;;;;;;11.40;99.90;;;;;;4960339;28;20060;-63
2021/01/19 10:30:27;;;;;;;;;;;11.40;99.90;;;;;;4963442;28;20379;-63
2021/01/19 10:32:54;;;;;;;;;;;11.40;99.90;;;;;;4975520;28;20741;-63
2021/01/19 10:35:25;;;;;;;;;;;11.40;99.90;;;;;;4967681;28;19930;-63
2021/01/19 10:37:52;;;;;;;;;;;11.40;99.90;;;;;;4972869;28;20469;-64
2021/01/19 10:40:19;;;;;;;;;;;11.40;99.90;;;;;;4960065;28;20321;-63
2021/01/19 10:42:46;;;;;;;;;;;11.40;99.90;;;;;;4975416;28;19941;-63
2021/01/19 10:45:21;;;;;;;;;;;11.40;99.90;;;;;;4958280;28;19930;-64
2021/01/19 10:47:48;;;;;;;;;;;11.40;99.90;;;;;;4974923;28;20314;-63
2021/01/19 10:50:15;;;;;;;;;;;11.40;99.90;;;;;;4957934;28;19945;-63
2021/01/19 10:52:43;;;;;;;;;;;11.40;99.90;;;;;;4973101;28;19925;-63
2021/01/19 10:55:10;;;;;;;;;;;11.50;99.90;;;;;;4975414;28;19936;-63
2021/01/19 10:57:37;;;;;;;;;;;11.40;99.90;;;;;;4959610;28;19933;-63
2021/01/19 11:00:05;;;;;;;;;;;11.40;99.90;;;;;;4957577;28;20277;-63
2021/01/19 11:02:31;;;;;;;;;;;11.40;99.90;;;;;;4978586;28;19930;-64
2021/01/19 11:04:58;;;;;;;;;;;11.40;99.90;;;;;;4960191;28;20386;-63
2021/01/19 11:07:25;;;;;;;;;;;11.40;99.90;;;;;;4978364;28;19929;-63
2021/01/19 11:09:53;;;;;;;;;;;11.40;99.90;;;;;;4961697;28;19945;-63
2021/01/19 11:12:19;;;;;;;;;;;11.40;99.90;;;;;;4979023;28;19930;-63
2021/01/19 11:14:47;;;;;;;;;;;11.40;99.90;;;;;;4979808;28;20732;-63
2021/01/19 11:17:14;;;;;;;;;;;11.40;99.90;;;;;;4963143;28;19953;-63
2021/01/19 11:19:40;;;;;;;;;;;11.40;99.90;;;;;;4959179;28;20394;-64
2021/01/19 11:22:08;;;;;;;;;;;11.40;99.90;;;;;;4977210;28;19930;-63
2021/01/19 11:24:34;;;;;;;;;;;11.40;99.90;;;;;;4976459;28;20325;-63
2021/01/19 11:27:01;;;;;;;;;;;11.40;99.90;;;;;;4977575;28;19937;-63
2021/01/19 11:29:28;;;;;;;;;;;11.40;99.90;;;;;;4973851;28;19925;-63
2021/01/19 11:31:55;;;;;;;;;;;11.40;99.90;;;;;;4957903;28;19933;-63
2021/01/19 11:34:22;;;;;;;;;;;11.40;99.90;;;;;;4959283;28;19934;-63
2021/01/19 11:36:49;;;;;;;;;;;11.40;99.90;;;;;;4970088;28;20302;-64
2021/01/19 11:39:15;;;;;;;;;;;11.40;99.90;;;;;;4961048;28;20406;-63
2021/01/19 11:41:42;;;;;;;;;;;11.40;99.90;;;;;;4973124;28;19945;-63
2021/01/19 11:44:10;;;;;;;;;;;11.40;99.90;;;;;;4975352;28;20004;-63
2021/01/19 11:46:38;;;;;;;;;;;11.40;99.90;;;;;;4962294;28;20353;-63
2021/01/19 11:49:07;;;;;;;;;;;11.40;99.90;;;;;;4972818;28;19964;-63
2021/01/19 11:51:35;;;;;;;;;;;11.40;99.90;;;;;;4979415;28;19929;-63
2021/01/19 11:54:02;;;;;;;;;;;11.40;99.90;;;;;;4973835;28;20291;-63
2021/01/19 11:56:32;;;;;;;;;;;11.40;99.90;;;;;;4976616;28;19936;-63
2021/01/19 11:58:59;;;;;;;;;;;11.40;99.90;;;;;;4960644;28;19926;-63
2021/01/19 12:01:25;;;;;;;;;;;11.40;99.90;;;;;;4978125;28;19929;-64
2021/01/19 12:03:52;;;;;;;;;;;11.40;99.90;;;;;;4971955;28;20114;-63
2021/01/19 12:06:20;;;;;;;;;;;11.50;99.90;;;;;;4958011;28;20345;-63
2021/01/19 12:08:47;;;;;;;;;;;11.40;99.90;;;;;;4975261;28;20387;-63
2021/01/19 12:11:14;;;;;;;;;;;11.40;99.90;;;;;;4965394;28;19976;-64
2021/01/19 12:13:41;;;;;;;;;;;11.40;99.90;;;;;;4973787;28;19929;-63
2021/01/19 12:16:08;;;;;;;;;;;11.50;99.90;;;;;;4956958;28;19941;-63
2021/01/19 12:18:35;;;;;;;;;;;11.40;99.90;;;;;;4974992;28;19930;-63
2021/01/19 12:21:02;;;;;;;;;;;11.40;99.90;;;;;;4960106;28;19957;-64
2021/01/19 12:23:30;;;;;;;;;;;11.40;99.90;;;;;;4972459;28;19929;-63
2021/01/19 12:25:57;;;;;;;;;;;11.50;99.90;;;;;;4952872;28;19933;-63
2021/01/19 12:28:24;;;;;;;;;;;11.50;99.90;;;;;;4979519;28;21030;-63
2021/01/19 12:30:51;;;;;;;;;;;11.40;99.90;;;;;;4961665;28;19939;-63
2021/01/19 12:33:18;;;;;;;;;;;11.50;99.90;;;;;;4967025;28;19983;-64
2021/01/19 12:35:45;;;;;;;;;;;11.50;99.90;;;;;;4970185;28;21589;-64
2021/01/19 12:38:11;;;;;;;;;;;11.40;99.90;;;;;;4959461;28;19962;-63
2021/01/19 12:40:39;;;;;;;;;;;11.50;99.90;;;;;;4973016;28;19929;-64
2021/01/19 12:43:08;;;;;;;;;;;11.50;99.90;;;;;;4957022;28;19934;-63
2021/01/19 12:45:34;;;;;;;;;;;11.50;99.90;;;;;;4974510;28;19936;-63
2021/01/19 12:48:01;;;;;;;;;;;11.50;99.90;;;;;;4973189;28;20477;-63
2021/01/19 12:50:28;;;;;;;;;;;11.40;99.90;;;;;;4970170;28;19930;-63
2021/01/19 12:52:54;;;;;;;;;;;11.50;99.90;;;;;;4956128;28;19933;-64
2021/01/19 12:55:21;;;;;;;;;;;11.50;99.90;;;;;;4973135;28;19937;-63
2021/01/19 12:57:49;;;;;;;;;;;11.50;99.90;;;;;;4953070;28;20306;-63
2021/01/19 13:00:16;;;;;;;;;;;11.40;99.90;;;;;;4960005;28;19940;-63
2021/01/19 13:02:42;;;;;;;;;;;11.40;99.90;;;;;;4970144;28;19933;-63
2021/01/19 13:05:11;;;;;;;;;;;11.50;99.90;;;;;;4958207;28;20189;-63
2021/01/19 13:07:38;;;;;;;;;;;11.50;99.90;;;;;;4974277;28;20254;-64
2021/01/19 13:10:05;;;;;;;;;;;11.50;99.90;;;;;;4970848;28;21617;-63
2021/01/19 13:12:32;;;;;;;;;;;11.50;99.90;;;;;;4974161;28;19938;-63
2021/01/19 13:14:59;;;;;;;;;;;11.50;99.90;;;;;;4975450;28;19977;-63
2021/01/19 13:17:27;;;;;;;;;;;11.50;99.90;;;;;;4975281;28;20333;-63
2021/01/19 13:19:54;;;;;;;;;;;11.50;99.90;;;;;;4960032;28;19938;-63
2021/01/19 13:22:21;;;;;;;;;;;11.40;99.90;;;;;;4970344;28;19929;-63
2021/01/19 13:24:47;;;;;;;;;;;11.50;99.90;;;;;;4950799;28;19934;-64
2021/01/19 13:27:14;;;;;;;;;;;11.40;99.90;;;;;;4958831;28;20333;-63
2021/01/19 13:29:41;;;;;;;;;;;11.50;99.90;;;;;;4967314;28;19930;-64
2021/01/19 13:32:08;;;;;;;;;;;11.40;99.90;;;;;;4989636;28;20413;-63
2021/01/19 13:34:36;;;;;;;;;;;11.40;99.90;;;;;;4954634;28;19926;-63
2021/01/19 13:37:03;;;;;;;;;;;11.40;99.90;;;;;;4959126;28;19936;-64
2021/01/19 13:39:29;;;;;;;;;;;11.40;99.90;;;;;;4957700;28;19930;-64
2021/01/19 13:41:56;;;;;;;;;;;11.50;99.90;;;;;;4955475;28;20338;-63
2021/01/19 13:44:24;;;;;;;;;;;11.50;99.90;;;;;;4966745;28;19941;-63
2021/01/19 13:46:50;;;;;;;;;;;11.50;99.90;;;;;;4973030;28;19929;-63
2021/01/19 13:49:18;;;;;;;;;;;11.50;99.90;;;;;;4977372;28;20330;-64
2021/01/19 13:51:45;;;;;;;;;;;11.50;99.90;;;;;;4962306;28;19930;-64
2021/01/19 13:54:11;;;;;;;;;;;11.50;99.90;;;;;;4975434;28;19929;-64
2021/01/19 13:56:38;;;;;;;;;;;11.50;99.90;;;;;;4972344;28;19934;-63
2021/01/19 13:59:05;;;;;;;;;;;11.40;99.90;;;;;;4974015;28;19925;-64
2021/01/19 14:01:32;;;;;;;;;;;11.50;99.90;;;;;;4959363;28;20314;-64
2021/01/19 14:03:59;;;;;;;;;;;11.40;99.90;;;;;;4952172;28;19930;-63
2021/01/19 14:06:26;;;;;;;;;;;11.50;99.90;;;;;;4994033;28;19930;-63
2021/01/19 14:08:53;;;;;;;;;;;11.50;99.90;;;;;;4956248;28;19937;-63
2021/01/19 14:11:25;;;;;;;;;;;11.50;99.90;;;;;;4955031;28;20384;-64
2021/01/19 14:13:51;;;;;;;;;;;11.50;99.90;;;;;;4979292;28;19930;-64
2021/01/19 14:16:18;;;;;;;;;;;11.50;99.90;;;;;;4961307;28;19929;-63
2021/01/19 14:18:45;;;;;;;;;;;11.50;99.90;;;;;;4969804;28;19937;-64
2021/01/19 14:21:15;;;;;;;;;;;11.50;99.90;;;;;;4955054;28;19930;-63
2021/01/19 14:23:42;;;;;;;;;;;11.50;99.90;;;;;;5055661;23;19927;-86